sensor_id;sensor_type;location;lat;lon;timestamp;P1;durP1;ratioP1;P2;durP2;ratioP2
23496;SDS011;11925;48.122;11.560;2023-05-01T00:00:13;5.65;;;4.45;;
23496;SDS011;11925;48.122;11.560;2023-05-01T00:02:45;5.72;;;4.32;;
23496;SDS011;11925;48.122;11.560;2023-05-01T00:05:15;5.68;;;4.45;;
23496;SDS011;11925;48.122;11.560;2023-05-01T00:07:44;5.50;;;4.32;;
23496;SDS011;11925;48.122;11.560;2023-05-01T00:10:12;5.78;;;4.03;;
23496;SDS011;11925;48.122;11.560;2023-05-01T00:12:41;5.85;;;4.30;;
23496;SDS011;11925;48.122;11.560;2023-05-01T00:15:09;5.25;;;4.28;;
23496;SDS011;11925;48.122;11.560;2023-05-01T00:17:38;6.10;;;4.07;;
23496;SDS011;11925;48.122;11.560;2023-05-01T00:20:07;5.10;;;4.25;;
23496;SDS011;11925;48.122;11.560;2023-05-01T00:22:37;6.45;;;4.05;;
23496;SDS011;11925;48.122;11.560;2023-05-01T00:25:06;7.00;;;4.53;;
23496;SDS011;11925;48.122;11.560;2023-05-01T00:27:36;4.78;;;4.28;;
23496;SDS011;11925;48.122;11.560;2023-05-01T00:30:05;6.63;;;4.05;;
23496;SDS011;11925;48.122;11.560;2023-05-01T00:32:34;4.97;;;4.43;;
23496;SDS011;11925;48.122;11.560;2023-05-01T00:35:02;6.47;;;4.28;;
23496;SDS011;11925;48.122;11.560;2023-05-01T00:37:31;6.47;;;4.30;;
23496;SDS011;11925;48.122;11.560;2023-05-01T00:40:02;8.45;;;4.40;;
23496;SDS011;11925;48.122;11.560;2023-05-01T00:42:33;6.13;;;4.88;;
23496;SDS011;11925;48.122;11.560;2023-05-01T00:45:03;6.07;;;4.28;;
23496;SDS011;11925;48.122;11.560;2023-05-01T00:47:32;6.05;;;4.63;;
23496;SDS011;11925;48.122;11.560;2023-05-01T00:50:02;6.05;;;4.78;;
23496;SDS011;11925;48.122;11.560;2023-05-01T00:52:31;6.47;;;4.50;;
23496;SDS011;11925;48.122;11.560;2023-05-01T00:55:01;6.57;;;4.68;;
23496;SDS011;11925;48.122;11.560;2023-05-01T00:57:31;5.25;;;4.50;;
23496;SDS011;11925;48.122;11.560;2023-05-01T01:00:00;5.53;;;4.35;;
23496;SDS011;11925;48.122;11.560;2023-05-01T01:02:30;6.53;;;5.32;;
23496;SDS011;11925;48.122;11.560;2023-05-01T01:04:58;5.05;;;4.45;;
23496;SDS011;11925;48.122;11.560;2023-05-01T01:07:28;7.85;;;4.40;;
23496;SDS011;11925;48.122;11.560;2023-05-01T01:10:10;6.18;;;4.43;;
23496;SDS011;11925;48.122;11.560;2023-05-01T01:12:48;5.55;;;4.60;;
23496;SDS011;11925;48.122;11.560;2023-05-01T01:15:23;6.30;;;4.75;;
23496;SDS011;11925;48.122;11.560;2023-05-01T01:18:03;5.72;;;4.57;;
23496;SDS011;11925;48.122;11.560;2023-05-01T01:20:37;7.45;;;5.03;;
23496;SDS011;11925;48.122;11.560;2023-05-01T01:29:13;7.85;;;5.38;;
23496;SDS011;11925;48.122;11.560;2023-05-01T01:31:58;6.85;;;5.05;;
23496;SDS011;11925;48.122;11.560;2023-05-01T01:34:33;5.78;;;4.88;;
23496;SDS011;11925;48.122;11.560;2023-05-01T01:37:07;6.90;;;4.72;;
23496;SDS011;11925;48.122;11.560;2023-05-01T01:39:42;6.63;;;4.63;;
23496;SDS011;11925;48.122;11.560;2023-05-01T01:42:17;6.18;;;5.22;;
23496;SDS011;11925;48.122;11.560;2023-05-01T01:44:49;6.40;;;4.88;;
23496;SDS011;11925;48.122;11.560;2023-05-01T01:47:22;6.05;;;5.00;;
23496;SDS011;11925;48.122;11.560;2023-05-01T01:49:56;6.90;;;4.70;;
23496;SDS011;11925;48.122;11.560;2023-05-01T01:52:28;6.93;;;4.57;;
23496;SDS011;11925;48.122;11.560;2023-05-01T01:54:59;6.57;;;5.00;;
23496;SDS011;11925;48.122;11.560;2023-05-01T01:57:32;7.25;;;4.97;;
23496;SDS011;11925;48.122;11.560;2023-05-01T02:00:03;5.38;;;4.88;;
23496;SDS011;11925;48.122;11.560;2023-05-01T02:02:38;5.65;;;4.85;;
23496;SDS011;11925;48.122;11.560;2023-05-01T02:05:12;5.10;;;4.40;;
23496;SDS011;11925;48.122;11.560;2023-05-01T02:07:42;7.47;;;5.22;;
23496;SDS011;11925;48.122;11.560;2023-05-01T02:10:15;6.25;;;4.93;;
23496;SDS011;11925;48.122;11.560;2023-05-01T02:12:45;6.90;;;4.93;;
23496;SDS011;11925;48.122;11.560;2023-05-01T02:15:17;7.63;;;5.25;;
23496;SDS011;11925;48.122;11.560;2023-05-01T02:17:48;5.70;;;4.80;;
23496;SDS011;11925;48.122;11.560;2023-05-01T02:20:19;6.15;;;4.90;;
23496;SDS011;11925;48.122;11.560;2023-05-01T02:22:49;6.17;;;5.10;;
23496;SDS011;11925;48.122;11.560;2023-05-01T02:25:19;7.00;;;4.63;;
23496;SDS011;11925;48.122;11.560;2023-05-01T02:27:49;7.13;;;4.85;;
23496;SDS011;11925;48.122;11.560;2023-05-01T02:30:23;5.60;;;4.63;;
23496;SDS011;11925;48.122;11.560;2023-05-01T02:32:51;7.22;;;4.80;;
23496;SDS011;11925;48.122;11.560;2023-05-01T02:35:21;6.93;;;4.75;;
23496;SDS011;11925;48.122;11.560;2023-05-01T02:37:50;6.10;;;4.88;;
23496;SDS011;11925;48.122;11.560;2023-05-01T02:40:19;5.85;;;4.70;;
23496;SDS011;11925;48.122;11.560;2023-05-01T02:42:47;8.05;;;5.40;;
23496;SDS011;11925;48.122;11.560;2023-05-01T02:45:20;6.03;;;4.95;;
23496;SDS011;11925;48.122;11.560;2023-05-01T02:47:51;6.30;;;5.25;;
23496;SDS011;11925;48.122;11.560;2023-05-01T02:50:26;6.20;;;4.90;;
23496;SDS011;11925;48.122;11.560;2023-05-01T02:52:56;6.57;;;5.07;;
23496;SDS011;11925;48.122;11.560;2023-05-01T02:55:43;8.25;;;5.35;;
23496;SDS011;11925;48.122;11.560;2023-05-01T02:58:15;6.05;;;5.10;;
23496;SDS011;11925;48.122;11.560;2023-05-01T03:00:44;7.10;;;5.32;;
23496;SDS011;11925;48.122;11.560;2023-05-01T03:03:13;7.20;;;4.90;;
23496;SDS011;11925;48.122;11.560;2023-05-01T03:05:43;10.18;;;5.70;;
23496;SDS011;11925;48.122;11.560;2023-05-01T03:08:13;15.32;;;8.85;;
23496;SDS011;11925;48.122;11.560;2023-05-01T03:10:41;85.65;;;48.55;;
23496;SDS011;11925;48.122;11.560;2023-05-01T03:13:10;232.25;;;123.88;;
23496;SDS011;11925;48.122;11.560;2023-05-01T03:15:39;257.08;;;145.50;;
23496;SDS011;11925;48.122;11.560;2023-05-01T03:18:07;211.52;;;113.72;;
23496;SDS011;11925;48.122;11.560;2023-05-01T03:20:36;181.30;;;101.40;;
23496;SDS011;11925;48.122;11.560;2023-05-01T03:23:06;118.70;;;61.33;;
23496;SDS011;11925;48.122;11.560;2023-05-01T03:25:35;85.78;;;45.92;;
23496;SDS011;11925;48.122;11.560;2023-05-01T03:28:04;50.22;;;28.85;;
23496;SDS011;11925;48.122;11.560;2023-05-01T03:30:33;76.28;;;45.35;;
23496;SDS011;11925;48.122;11.560;2023-05-01T03:33:01;119.75;;;65.95;;
23496;SDS011;11925;48.122;11.560;2023-05-01T03:35:31;117.40;;;61.45;;
23496;SDS011;11925;48.122;11.560;2023-05-01T03:38:01;114.50;;;64.45;;
23496;SDS011;11925;48.122;11.560;2023-05-01T03:40:50;189.82;;;105.80;;
23496;SDS011;11925;48.122;11.560;2023-05-01T03:43:37;112.55;;;60.92;;
23496;SDS011;11925;48.122;11.560;2023-05-01T03:46:13;70.03;;;39.25;;
23496;SDS011;11925;48.122;11.560;2023-05-01T03:48:42;37.35;;;22.42;;
23496;SDS011;11925;48.122;11.560;2023-05-01T03:51:11;20.98;;;14.27;;
23496;SDS011;11925;48.122;11.560;2023-05-01T03:53:46;16.73;;;11.15;;
23496;SDS011;11925;48.122;11.560;2023-05-01T03:56:16;14.15;;;9.18;;
23496;SDS011;11925;48.122;11.560;2023-05-01T03:58:45;12.32;;;7.35;;
23496;SDS011;11925;48.122;11.560;2023-05-01T04:01:13;9.98;;;6.95;;
23496;SDS011;11925;48.122;11.560;2023-05-01T04:03:43;9.65;;;6.57;;
23496;SDS011;11925;48.122;11.560;2023-05-01T04:06:12;7.88;;;6.43;;
23496;SDS011;11925;48.122;11.560;2023-05-01T04:08:43;8.30;;;6.63;;
23496;SDS011;11925;48.122;11.560;2023-05-01T04:11:11;6.88;;;6.05;;
23496;SDS011;11925;48.122;11.560;2023-05-01T04:13:41;7.88;;;6.03;;
23496;SDS011;11925;48.122;11.560;2023-05-01T04:16:10;7.75;;;6.43;;
23496;SDS011;11925;48.122;11.560;2023-05-01T04:18:39;8.48;;;6.18;;
23496;SDS011;11925;48.122;11.560;2023-05-01T04:21:08;7.75;;;6.05;;
23496;SDS011;11925;48.122;11.560;2023-05-01T04:23:38;8.40;;;6.40;;
23496;SDS011;11925;48.122;11.560;2023-05-01T04:26:07;7.38;;;6.50;;
23496;SDS011;11925;48.122;11.560;2023-05-01T04:28:35;7.57;;;6.15;;
23496;SDS011;11925;48.122;11.560;2023-05-01T04:31:08;7.55;;;6.00;;
23496;SDS011;11925;48.122;11.560;2023-05-01T04:33:36;7.47;;;6.20;;
23496;SDS011;11925;48.122;11.560;2023-05-01T04:36:05;7.38;;;6.07;;
23496;SDS011;11925;48.122;11.560;2023-05-01T04:38:34;9.40;;;6.07;;
23496;SDS011;11925;48.122;11.560;2023-05-01T04:41:03;7.65;;;5.88;;
23496;SDS011;11925;48.122;11.560;2023-05-01T04:43:32;7.65;;;5.90;;
23496;SDS011;11925;48.122;11.560;2023-05-01T04:46:02;7.18;;;5.72;;
23496;SDS011;11925;48.122;11.560;2023-05-01T04:48:32;7.40;;;6.00;;
23496;SDS011;11925;48.122;11.560;2023-05-01T04:51:01;7.43;;;5.63;;
23496;SDS011;11925;48.122;11.560;2023-05-01T04:53:32;8.10;;;5.53;;
23496;SDS011;11925;48.122;11.560;2023-05-01T04:56:03;8.20;;;6.00;;
23496;SDS011;11925;48.122;11.560;2023-05-01T04:58:32;7.72;;;5.65;;
23496;SDS011;11925;48.122;11.560;2023-05-01T05:01:09;8.57;;;6.80;;
23496;SDS011;11925;48.122;11.560;2023-05-01T05:03:39;7.40;;;6.30;;
23496;SDS011;11925;48.122;11.560;2023-05-01T05:06:10;7.45;;;5.85;;
23496;SDS011;11925;48.122;11.560;2023-05-01T05:08:39;7.65;;;5.85;;
23496;SDS011;11925;48.122;11.560;2023-05-01T05:11:09;7.28;;;5.57;;
23496;SDS011;11925;48.122;11.560;2023-05-01T05:13:43;7.43;;;5.97;;
23496;SDS011;11925;48.122;11.560;2023-05-01T05:16:12;8.57;;;5.88;;
23496;SDS011;11925;48.122;11.560;2023-05-01T05:18:42;7.68;;;5.97;;
23496;SDS011;11925;48.122;11.560;2023-05-01T05:21:11;10.35;;;6.00;;
23496;SDS011;11925;48.122;11.560;2023-05-01T05:23:46;7.82;;;5.57;;
23496;SDS011;11925;48.122;11.560;2023-05-01T05:26:14;7.95;;;5.93;;
23496;SDS011;11925;48.122;11.560;2023-05-01T05:28:43;7.30;;;5.22;;
23496;SDS011;11925;48.122;11.560;2023-05-01T05:31:12;6.22;;;5.25;;
23496;SDS011;11925;48.122;11.560;2023-05-01T05:33:42;8.10;;;5.95;;
23496;SDS011;11925;48.122;11.560;2023-05-01T05:36:13;6.03;;;5.05;;
23496;SDS011;11925;48.122;11.560;2023-05-01T05:38:42;7.07;;;5.68;;
23496;SDS011;11925;48.122;11.560;2023-05-01T05:41:15;7.25;;;5.63;;
23496;SDS011;11925;48.122;11.560;2023-05-01T05:43:44;7.10;;;5.93;;
23496;SDS011;11925;48.122;11.560;2023-05-01T05:46:12;7.45;;;5.78;;
23496;SDS011;11925;48.122;11.560;2023-05-01T05:48:42;9.20;;;5.97;;
23496;SDS011;11925;48.122;11.560;2023-05-01T05:51:12;6.77;;;5.80;;
23496;SDS011;11925;48.122;11.560;2023-05-01T05:53:40;5.40;;;4.60;;
23496;SDS011;11925;48.122;11.560;2023-05-01T05:56:10;7.93;;;5.45;;
23496;SDS011;11925;48.122;11.560;2023-05-01T05:58:39;7.63;;;5.47;;
23496;SDS011;11925;48.122;11.560;2023-05-01T06:01:07;7.57;;;5.60;;
23496;SDS011;11925;48.122;11.560;2023-05-01T06:03:38;8.30;;;6.22;;
23496;SDS011;11925;48.122;11.560;2023-05-01T06:06:08;7.57;;;5.63;;
23496;SDS011;11925;48.122;11.560;2023-05-01T06:08:37;12.88;;;5.97;;
23496;SDS011;11925;48.122;11.560;2023-05-01T06:11:09;6.80;;;5.45;;
23496;SDS011;11925;48.122;11.560;2023-05-01T06:13:38;6.82;;;5.40;;
23496;SDS011;11925;48.122;11.560;2023-05-01T06:16:06;7.25;;;5.30;;
23496;SDS011;11925;48.122;11.560;2023-05-01T06:18:35;6.43;;;5.15;;
23496;SDS011;11925;48.122;11.560;2023-05-01T06:21:04;5.38;;;4.80;;
23496;SDS011;11925;48.122;11.560;2023-05-01T06:23:35;6.72;;;5.15;;
23496;SDS011;11925;48.122;11.560;2023-05-01T06:26:26;6.82;;;5.47;;
23496;SDS011;11925;48.122;11.560;2023-05-01T06:28:54;6.18;;;5.05;;
23496;SDS011;11925;48.122;11.560;2023-05-01T06:31:24;6.63;;;5.20;;
23496;SDS011;11925;48.122;11.560;2023-05-01T06:33:54;7.13;;;5.43;;
23496;SDS011;11925;48.122;11.560;2023-05-01T06:36:30;7.97;;;5.57;;
23496;SDS011;11925;48.122;11.560;2023-05-01T06:39:00;8.73;;;5.38;;
23496;SDS011;11925;48.122;11.560;2023-05-01T06:41:30;7.10;;;5.38;;
23496;SDS011;11925;48.122;11.560;2023-05-01T06:43:58;7.90;;;4.90;;
23496;SDS011;11925;48.122;11.560;2023-05-01T06:46:27;7.82;;;5.57;;
23496;SDS011;11925;48.122;11.560;2023-05-01T06:48:55;7.80;;;5.60;;
23496;SDS011;11925;48.122;11.560;2023-05-01T06:51:24;6.55;;;5.35;;
23496;SDS011;11925;48.122;11.560;2023-05-01T06:53:53;7.70;;;5.30;;
23496;SDS011;11925;48.122;11.560;2023-05-01T06:56:23;8.45;;;5.65;;
23496;SDS011;11925;48.122;11.560;2023-05-01T06:58:51;6.95;;;5.07;;
23496;SDS011;11925;48.122;11.560;2023-05-01T07:01:20;7.07;;;5.22;;
23496;SDS011;11925;48.122;11.560;2023-05-01T07:03:49;7.22;;;5.88;;
23496;SDS011;11925;48.122;11.560;2023-05-01T07:06:17;7.82;;;5.38;;
23496;SDS011;11925;48.122;11.560;2023-05-01T07:08:46;8.77;;;5.35;;
23496;SDS011;11925;48.122;11.560;2023-05-01T07:11:14;5.70;;;4.85;;
23496;SDS011;11925;48.122;11.560;2023-05-01T07:13:44;6.68;;;5.20;;
23496;SDS011;11925;48.122;11.560;2023-05-01T07:16:12;7.05;;;5.07;;
23496;SDS011;11925;48.122;11.560;2023-05-01T07:18:41;7.13;;;4.97;;
23496;SDS011;11925;48.122;11.560;2023-05-01T07:21:09;8.43;;;5.43;;
23496;SDS011;11925;48.122;11.560;2023-05-01T07:23:38;7.15;;;5.45;;
23496;SDS011;11925;48.122;11.560;2023-05-01T07:26:07;6.55;;;5.13;;
23496;SDS011;11925;48.122;11.560;2023-05-01T07:28:35;8.13;;;5.35;;
23496;SDS011;11925;48.122;11.560;2023-05-01T07:31:05;6.95;;;5.30;;
23496;SDS011;11925;48.122;11.560;2023-05-01T07:33:35;9.15;;;5.85;;
23496;SDS011;11925;48.122;11.560;2023-05-01T07:36:04;8.32;;;6.38;;
23496;SDS011;11925;48.122;11.560;2023-05-01T07:38:33;9.85;;;6.63;;
23496;SDS011;11925;48.122;11.560;2023-05-01T07:41:01;12.18;;;7.85;;
23496;SDS011;11925;48.122;11.560;2023-05-01T07:43:30;12.35;;;8.00;;
23496;SDS011;11925;48.122;11.560;2023-05-01T07:45:58;12.43;;;8.65;;
23496;SDS011;11925;48.122;11.560;2023-05-01T07:48:28;23.25;;;13.85;;
23496;SDS011;11925;48.122;11.560;2023-05-01T07:51:00;26.60;;;16.52;;
23496;SDS011;11925;48.122;11.560;2023-05-01T07:53:29;114.68;;;55.22;;
23496;SDS011;11925;48.122;11.560;2023-05-01T07:56:03;63.45;;;33.85;;
23496;SDS011;11925;48.122;11.560;2023-05-01T07:58:34;37.05;;;20.90;;
23496;SDS011;11925;48.122;11.560;2023-05-01T08:01:04;33.90;;;18.38;;
23496;SDS011;11925;48.122;11.560;2023-05-01T08:03:34;29.55;;;17.15;;
23496;SDS011;11925;48.122;11.560;2023-05-01T08:06:03;24.85;;;14.55;;
23496;SDS011;11925;48.122;11.560;2023-05-01T08:08:32;20.27;;;12.20;;
23496;SDS011;11925;48.122;11.560;2023-05-01T08:11:01;14.02;;;9.75;;
23496;SDS011;11925;48.122;11.560;2023-05-01T08:13:29;12.15;;;8.43;;
23496;SDS011;11925;48.122;11.560;2023-05-01T08:15:59;9.50;;;7.85;;
23496;SDS011;11925;48.122;11.560;2023-05-01T08:18:29;12.73;;;7.93;;
23496;SDS011;11925;48.122;11.560;2023-05-01T08:20:59;7.35;;;5.80;;
23496;SDS011;11925;48.122;11.560;2023-05-01T08:23:27;6.88;;;5.55;;
23496;SDS011;11925;48.122;11.560;2023-05-01T08:25:56;7.55;;;5.22;;
23496;SDS011;11925;48.122;11.560;2023-05-01T08:28:25;8.82;;;5.60;;
23496;SDS011;11925;48.122;11.560;2023-05-01T08:30:53;6.40;;;5.32;;
23496;SDS011;11925;48.122;11.560;2023-05-01T08:33:21;6.70;;;5.57;;
23496;SDS011;11925;48.122;11.560;2023-05-01T08:35:50;8.13;;;5.28;;
23496;SDS011;11925;48.122;11.560;2023-05-01T08:38:20;11.43;;;5.68;;
23496;SDS011;11925;48.122;11.560;2023-05-01T08:40:50;6.78;;;5.20;;
23496;SDS011;11925;48.122;11.560;2023-05-01T08:43:19;9.25;;;5.45;;
23496;SDS011;11925;48.122;11.560;2023-05-01T08:45:49;6.68;;;5.35;;
23496;SDS011;11925;48.122;11.560;2023-05-01T08:48:21;8.07;;;5.30;;
23496;SDS011;11925;48.122;11.560;2023-05-01T08:50:53;7.03;;;5.75;;
23496;SDS011;11925;48.122;11.560;2023-05-01T08:53:26;8.40;;;5.50;;
23496;SDS011;11925;48.122;11.560;2023-05-01T08:55:58;6.82;;;5.30;;
23496;SDS011;11925;48.122;11.560;2023-05-01T08:58:28;9.57;;;5.88;;
23496;SDS011;11925;48.122;11.560;2023-05-01T09:00:57;7.97;;;5.22;;
23496;SDS011;11925;48.122;11.560;2023-05-01T09:03:29;6.20;;;5.30;;
23496;SDS011;11925;48.122;11.560;2023-05-01T09:05:59;8.20;;;5.57;;
23496;SDS011;11925;48.122;11.560;2023-05-01T09:08:31;8.40;;;5.90;;
23496;SDS011;11925;48.122;11.560;2023-05-01T09:11:00;9.70;;;5.88;;
23496;SDS011;11925;48.122;11.560;2023-05-01T09:13:30;9.15;;;5.70;;
23496;SDS011;11925;48.122;11.560;2023-05-01T09:15:58;8.60;;;6.10;;
23496;SDS011;11925;48.122;11.560;2023-05-01T09:18:28;8.43;;;6.55;;
23496;SDS011;11925;48.122;11.560;2023-05-01T09:20:57;7.35;;;6.20;;
23496;SDS011;11925;48.122;11.560;2023-05-01T09:23:25;8.45;;;6.53;;
23496;SDS011;11925;48.122;11.560;2023-05-01T09:25:55;9.73;;;6.40;;
23496;SDS011;11925;48.122;11.560;2023-05-01T09:28:40;8.23;;;6.88;;
23496;SDS011;11925;48.122;11.560;2023-05-01T09:31:19;9.25;;;7.18;;
23496;SDS011;11925;48.122;11.560;2023-05-01T09:33:52;9.40;;;6.75;;
23496;SDS011;11925;48.122;11.560;2023-05-01T09:36:22;10.20;;;7.03;;
23496;SDS011;11925;48.122;11.560;2023-05-01T09:38:52;10.23;;;7.10;;
23496;SDS011;11925;48.122;11.560;2023-05-01T09:41:22;9.40;;;6.93;;
23496;SDS011;11925;48.122;11.560;2023-05-01T09:43:52;10.35;;;7.18;;
23496;SDS011;11925;48.122;11.560;2023-05-01T09:46:22;9.50;;;7.63;;
23496;SDS011;11925;48.122;11.560;2023-05-01T09:48:53;10.40;;;8.07;;
23496;SDS011;11925;48.122;11.560;2023-05-01T09:51:23;10.23;;;7.68;;
23496;SDS011;11925;48.122;11.560;2023-05-01T09:53:54;9.05;;;7.53;;
23496;SDS011;11925;48.122;11.560;2023-05-01T09:56:24;10.80;;;7.95;;
23496;SDS011;11925;48.122;11.560;2023-05-01T09:58:54;11.35;;;8.52;;
23496;SDS011;11925;48.122;11.560;2023-05-01T10:01:36;11.50;;;8.02;;
23496;SDS011;11925;48.122;11.560;2023-05-01T10:04:06;12.13;;;9.40;;
23496;SDS011;11925;48.122;11.560;2023-05-01T10:06:35;11.52;;;8.75;;
23496;SDS011;11925;48.122;11.560;2023-05-01T10:09:04;10.32;;;8.43;;
23496;SDS011;11925;48.122;11.560;2023-05-01T10:11:47;10.98;;;9.18;;
23496;SDS011;11925;48.122;11.560;2023-05-01T10:14:17;10.27;;;8.45;;
23496;SDS011;11925;48.122;11.560;2023-05-01T10:16:46;12.45;;;9.13;;
23496;SDS011;11925;48.122;11.560;2023-05-01T10:19:15;11.77;;;8.73;;
23496;SDS011;11925;48.122;11.560;2023-05-01T10:21:45;11.80;;;8.38;;
23496;SDS011;11925;48.122;11.560;2023-05-01T10:24:13;11.45;;;9.07;;
23496;SDS011;11925;48.122;11.560;2023-05-01T10:26:44;12.47;;;8.93;;
23496;SDS011;11925;48.122;11.560;2023-05-01T10:29:17;13.93;;;9.48;;
23496;SDS011;11925;48.122;11.560;2023-05-01T10:31:50;11.27;;;8.82;;
23496;SDS011;11925;48.122;11.560;2023-05-01T10:34:18;14.07;;;9.38;;
23496;SDS011;11925;48.122;11.560;2023-05-01T10:36:54;11.18;;;9.55;;
23496;SDS011;11925;48.122;11.560;2023-05-01T10:39:28;12.45;;;10.18;;
23496;SDS011;11925;48.122;11.560;2023-05-01T10:42:06;11.70;;;9.63;;
23496;SDS011;11925;48.122;11.560;2023-05-01T10:44:37;12.68;;;9.75;;
23496;SDS011;11925;48.122;11.560;2023-05-01T10:50:14;12.85;;;10.25;;
23496;SDS011;11925;48.122;11.560;2023-05-01T10:55:43;12.00;;;9.65;;
23496;SDS011;11925;48.122;11.560;2023-05-01T11:01:31;14.13;;;10.70;;
23496;SDS011;11925;48.122;11.560;2023-05-01T11:04:01;12.57;;;9.98;;
23496;SDS011;11925;48.122;11.560;2023-05-01T11:06:30;13.02;;;10.15;;
23496;SDS011;11925;48.122;11.560;2023-05-01T11:08:59;13.38;;;11.07;;
23496;SDS011;11925;48.122;11.560;2023-05-01T11:11:45;13.70;;;10.98;;
23496;SDS011;11925;48.122;11.560;2023-05-01T11:14:17;13.90;;;10.63;;
23496;SDS011;11925;48.122;11.560;2023-05-01T11:16:46;15.23;;;10.95;;
23496;SDS011;11925;48.122;11.560;2023-05-01T11:22:13;16.02;;;10.65;;
23496;SDS011;11925;48.122;11.560;2023-05-01T11:24:41;14.18;;;10.38;;
23496;SDS011;11925;48.122;11.560;2023-05-01T11:27:15;14.98;;;11.70;;
23496;SDS011;11925;48.122;11.560;2023-05-01T11:29:45;12.63;;;10.68;;
23496;SDS011;11925;48.122;11.560;2023-05-01T11:32:22;15.45;;;11.27;;
23496;SDS011;11925;48.122;11.560;2023-05-01T11:34:53;12.40;;;10.38;;
23496;SDS011;11925;48.122;11.560;2023-05-01T11:40:13;13.55;;;10.50;;
23496;SDS011;11925;48.122;11.560;2023-05-01T11:42:47;13.80;;;10.90;;
23496;SDS011;11925;48.122;11.560;2023-05-01T11:45:17;13.38;;;11.15;;
23496;SDS011;11925;48.122;11.560;2023-05-01T11:47:46;15.10;;;11.57;;
23496;SDS011;11925;48.122;11.560;2023-05-01T11:50:15;14.07;;;10.77;;
23496;SDS011;11925;48.122;11.560;2023-05-01T11:52:44;13.75;;;11.57;;
23496;SDS011;11925;48.122;11.560;2023-05-01T11:55:14;13.48;;;11.38;;
23496;SDS011;11925;48.122;11.560;2023-05-01T11:57:46;12.65;;;10.85;;
23496;SDS011;11925;48.122;11.560;2023-05-01T12:00:25;14.50;;;12.02;;
23496;SDS011;11925;48.122;11.560;2023-05-01T12:02:58;15.10;;;11.57;;
23496;SDS011;11925;48.122;11.560;2023-05-01T12:05:29;16.08;;;11.27;;
23496;SDS011;11925;48.122;11.560;2023-05-01T12:08:07;13.40;;;11.15;;
23496;SDS011;11925;48.122;11.560;2023-05-01T12:10:36;13.98;;;11.38;;
23496;SDS011;11925;48.122;11.560;2023-05-01T12:13:06;13.80;;;11.20;;
23496;SDS011;11925;48.122;11.560;2023-05-01T12:15:38;13.88;;;11.07;;
23496;SDS011;11925;48.122;11.560;2023-05-01T12:18:10;16.70;;;11.93;;
23496;SDS011;11925;48.122;11.560;2023-05-01T12:20:40;14.07;;;11.73;;
23496;SDS011;11925;48.122;11.560;2023-05-01T12:23:10;13.85;;;12.32;;
23496;SDS011;11925;48.122;11.560;2023-05-01T12:25:40;14.07;;;11.85;;
23496;SDS011;11925;48.122;11.560;2023-05-01T12:28:11;14.30;;;12.15;;
23496;SDS011;11925;48.122;11.560;2023-05-01T12:30:42;15.63;;;11.93;;
23496;SDS011;11925;48.122;11.560;2023-05-01T12:33:12;14.23;;;11.63;;
23496;SDS011;11925;48.122;11.560;2023-05-01T12:35:41;12.30;;;10.93;;
23496;SDS011;11925;48.122;11.560;2023-05-01T12:38:14;13.52;;;11.05;;
23496;SDS011;11925;48.122;11.560;2023-05-01T12:40:50;14.20;;;11.32;;
23496;SDS011;11925;48.122;11.560;2023-05-01T12:43:20;14.70;;;11.65;;
23496;SDS011;11925;48.122;11.560;2023-05-01T12:45:51;13.85;;;11.45;;
23496;SDS011;11925;48.122;11.560;2023-05-01T12:48:20;16.60;;;12.38;;
23496;SDS011;11925;48.122;11.560;2023-05-01T12:50:49;15.20;;;11.90;;
23496;SDS011;11925;48.122;11.560;2023-05-01T12:53:20;13.77;;;10.80;;
23496;SDS011;11925;48.122;11.560;2023-05-01T12:55:50;14.30;;;10.90;;
23496;SDS011;11925;48.122;11.560;2023-05-01T12:58:19;14.68;;;11.82;;
23496;SDS011;11925;48.122;11.560;2023-05-01T13:00:48;14.35;;;10.95;;
23496;SDS011;11925;48.122;11.560;2023-05-01T13:03:21;15.25;;;11.88;;
23496;SDS011;11925;48.122;11.560;2023-05-01T13:05:51;13.60;;;10.80;;
23496;SDS011;11925;48.122;11.560;2023-05-01T13:08:25;14.55;;;10.95;;
23496;SDS011;11925;48.122;11.560;2023-05-01T13:10:55;14.75;;;11.57;;
23496;SDS011;11925;48.122;11.560;2023-05-01T13:13:25;13.48;;;11.13;;
23496;SDS011;11925;48.122;11.560;2023-05-01T13:16:07;13.73;;;10.38;;
23496;SDS011;11925;48.122;11.560;2023-05-01T13:18:41;13.52;;;11.63;;
23496;SDS011;11925;48.122;11.560;2023-05-01T13:21:11;13.18;;;10.73;;
23496;SDS011;11925;48.122;11.560;2023-05-01T13:23:42;15.15;;;11.35;;
23496;SDS011;11925;48.122;11.560;2023-05-01T13:26:23;14.73;;;11.75;;
23496;SDS011;11925;48.122;11.560;2023-05-01T13:28:53;14.00;;;10.80;;
23496;SDS011;11925;48.122;11.560;2023-05-01T13:31:25;14.60;;;11.23;;
23496;SDS011;11925;48.122;11.560;2023-05-01T13:33:54;15.95;;;11.38;;
23496;SDS011;11925;48.122;11.560;2023-05-01T13:36:24;13.33;;;11.63;;
23496;SDS011;11925;48.122;11.560;2023-05-01T13:38:57;14.05;;;10.82;;
23496;SDS011;11925;48.122;11.560;2023-05-01T13:41:26;13.77;;;11.10;;
23496;SDS011;11925;48.122;11.560;2023-05-01T13:43:55;14.27;;;11.48;;
23496;SDS011;11925;48.122;11.560;2023-05-01T13:46:25;15.23;;;11.25;;
23496;SDS011;11925;48.122;11.560;2023-05-01T13:48:55;13.27;;;11.40;;
23496;SDS011;11925;48.122;11.560;2023-05-01T13:51:30;15.82;;;11.30;;
23496;SDS011;11925;48.122;11.560;2023-05-01T13:56:30;12.07;;;10.38;;
23496;SDS011;11925;48.122;11.560;2023-05-01T13:58:58;15.75;;;11.73;;
23496;SDS011;11925;48.122;11.560;2023-05-01T14:01:28;12.93;;;11.45;;
23496;SDS011;11925;48.122;11.560;2023-05-01T14:03:57;15.32;;;11.75;;
23496;SDS011;11925;48.122;11.560;2023-05-01T14:06:26;14.02;;;11.25;;
23496;SDS011;11925;48.122;11.560;2023-05-01T14:08:56;11.75;;;10.18;;
23496;SDS011;11925;48.122;11.560;2023-05-01T14:11:25;13.88;;;10.82;;
23496;SDS011;11925;48.122;11.560;2023-05-01T14:13:54;14.10;;;10.18;;
23496;SDS011;11925;48.122;11.560;2023-05-01T14:16:26;16.08;;;11.13;;
23496;SDS011;11925;48.122;11.560;2023-05-01T14:18:57;12.70;;;11.35;;
23496;SDS011;11925;48.122;11.560;2023-05-01T14:21:25;15.75;;;11.23;;
23496;SDS011;11925;48.122;11.560;2023-05-01T14:23:55;15.20;;;11.23;;
23496;SDS011;11925;48.122;11.560;2023-05-01T14:26:23;16.77;;;11.45;;
23496;SDS011;11925;48.122;11.560;2023-05-01T14:28:52;13.43;;;10.65;;
23496;SDS011;11925;48.122;11.560;2023-05-01T14:31:25;13.88;;;10.68;;
23496;SDS011;11925;48.122;11.560;2023-05-01T14:33:56;14.13;;;10.80;;
23496;SDS011;11925;48.122;11.560;2023-05-01T14:36:26;14.13;;;11.37;;
23496;SDS011;11925;48.122;11.560;2023-05-01T14:39:00;13.10;;;9.73;;
23496;SDS011;11925;48.122;11.560;2023-05-01T14:41:30;13.63;;;10.82;;
23496;SDS011;11925;48.122;11.560;2023-05-01T14:44:03;19.73;;;11.20;;
23496;SDS011;11925;48.122;11.560;2023-05-01T14:46:33;13.00;;;10.05;;
23496;SDS011;11925;48.122;11.560;2023-05-01T14:49:05;13.48;;;10.18;;
23496;SDS011;11925;48.122;11.560;2023-05-01T14:51:34;12.30;;;10.05;;
23496;SDS011;11925;48.122;11.560;2023-05-01T14:54:02;13.65;;;10.07;;
23496;SDS011;11925;48.122;11.560;2023-05-01T14:56:30;12.52;;;9.80;;
23496;SDS011;11925;48.122;11.560;2023-05-01T14:58:59;12.13;;;10.48;;
23496;SDS011;11925;48.122;11.560;2023-05-01T15:01:27;12.27;;;10.05;;
23496;SDS011;11925;48.122;11.560;2023-05-01T15:03:56;11.55;;;9.65;;
23496;SDS011;11925;48.122;11.560;2023-05-01T15:06:29;12.73;;;9.73;;